sensor_id;sensor_type;location;lat;lon;timestamp;temperature;humidity
47336;DHT22;33068;51.990;5.926;2023-04-15T00:00:19;8.20;99.90
47336;DHT22;33068;51.990;5.926;2023-04-15T00:02:46;8.80;99.90
47336;DHT22;33068;51.990;5.926;2023-04-15T00:05:15;8.50;99.90
47336;DHT22;33068;51.990;5.926;2023-04-15T00:07:42;8.60;99.90
47336;DHT22;33068;51.990;5.926;2023-04-15T00:10:10;8.40;99.90
47336;DHT22;33068;51.990;5.926;2023-04-15T00:12:37;8.40;99.90
47336;DHT22;33068;51.990;5.926;2023-04-15T00:15:06;8.40;99.90
47336;DHT22;33068;51.990;5.926;2023-04-15T00:17:38;8.40;99.90
47336;DHT22;33068;51.990;5.926;2023-04-15T00:20:06;8.40;99.90
47336;DHT22;33068;51.990;5.926;2023-04-15T00:22:33;8.30;99.90
47336;DHT22;33068;51.990;5.926;2023-04-15T00:25:01;8.30;99.90
47336;DHT22;33068;51.990;5.926;2023-04-15T00:27:28;8.30;99.90
47336;DHT22;33068;51.990;5.926;2023-04-15T00:29:56;8.30;99.90
47336;DHT22;33068;51.990;5.926;2023-04-15T00:32:23;8.20;99.90
47336;DHT22;33068;51.990;5.926;2023-04-15T00:34:52;8.20;99.90
47336;DHT22;33068;51.990;5.926;2023-04-15T00:37:19;8.20;99.90
47336;DHT22;33068;51.990;5.926;2023-04-15T00:39:47;8.20;99.90
47336;DHT22;33068;51.990;5.926;2023-04-15T00:42:14;8.30;99.90
47336;DHT22;33068;51.990;5.926;2023-04-15T00:44:42;8.10;99.90
47336;DHT22;33068;51.990;5.926;2023-04-15T00:47:10;8.10;99.90
47336;DHT22;33068;51.990;5.926;2023-04-15T00:49:38;8.30;99.90
47336;DHT22;33068;51.990;5.926;2023-04-15T00:52:07;8.10;99.90
47336;DHT22;33068;51.990;5.926;2023-04-15T00:54:35;8.10;99.90
47336;DHT22;33068;51.990;5.926;2023-04-15T00:57:04;8.00;99.90
47336;DHT22;33068;51.990;5.926;2023-04-15T00:59:33;8.00;99.90
47336;DHT22;33068;51.990;5.926;2023-04-15T01:02:01;8.00;99.90
47336;DHT22;33068;51.990;5.926;2023-04-15T01:04:29;8.00;99.90
47336;DHT22;33068;51.990;5.926;2023-04-15T01:06:59;8.00;99.90
47336;DHT22;33068;51.990;5.926;2023-04-15T01:09:28;8.00;99.90
47336;DHT22;33068;51.990;5.926;2023-04-15T01:11:55;8.20;99.90
47336;DHT22;33068;51.990;5.926;2023-04-15T01:14:24;8.00;99.90
47336;DHT22;33068;51.990;5.926;2023-04-15T01:16:52;8.00;99.90
47336;DHT22;33068;51.990;5.926;2023-04-15T01:19:19;8.10;99.90
47336;DHT22;33068;51.990;5.926;2023-04-15T01:21:47;8.00;99.90
47336;DHT22;33068;51.990;5.926;2023-04-15T01:24:17;8.00;99.90
47336;DHT22;33068;51.990;5.926;2023-04-15T01:26:47;8.00;99.90
47336;DHT22;33068;51.990;5.926;2023-04-15T01:29:17;8.00;99.90
47336;DHT22;33068;51.990;5.926;2023-04-15T01:31:49;8.10;99.90
47336;DHT22;33068;51.990;5.926;2023-04-15T01:34:17;7.70;99.90
47336;DHT22;33068;51.990;5.926;2023-04-15T01:36:46;8.00;99.90
47336;DHT22;33068;51.990;5.926;2023-04-15T01:39:13;8.00;99.90
47336;DHT22;33068;51.990;5.926;2023-04-15T01:41:42;7.60;99.90
47336;DHT22;33068;51.990;5.926;2023-04-15T01:44:20;8.00;99.90
47336;DHT22;33068;51.990;5.926;2023-04-15T01:46:50;7.90;99.90
47336;DHT22;33068;51.990;5.926;2023-04-15T01:49:21;8.10;99.90
47336;DHT22;33068;51.990;5.926;2023-04-15T01:51:53;8.00;99.90
47336;DHT22;33068;51.990;5.926;2023-04-15T01:54:20;8.00;99.90
47336;DHT22;33068;51.990;5.926;2023-04-15T01:56:51;7.90;99.90
47336;DHT22;33068;51.990;5.926;2023-04-15T01:59:20;8.00;99.90
47336;DHT22;33068;51.990;5.926;2023-04-15T02:01:47;7.90;99.90
47336;DHT22;33068;51.990;5.926;2023-04-15T02:04:15;7.90;99.90
47336;DHT22;33068;51.990;5.926;2023-04-15T02:06:45;7.90;99.90
47336;DHT22;33068;51.990;5.926;2023-04-15T02:09:13;8.00;99.90
47336;DHT22;33068;51.990;5.926;2023-04-15T02:11:45;7.80;99.90
47336;DHT22;33068;51.990;5.926;2023-04-15T02:14:14;7.80;99.90
47336;DHT22;33068;51.990;5.926;2023-04-15T02:16:50;7.80;99.90
47336;DHT22;33068;51.990;5.926;2023-04-15T02:19:17;7.80;99.90
47336;DHT22;33068;51.990;5.926;2023-04-15T02:21:45;7.80;99.90
47336;DHT22;33068;51.990;5.926;2023-04-15T02:24:15;7.80;99.90
47336;DHT22;33068;51.990;5.926;2023-04-15T02:26:45;7.70;99.90
47336;DHT22;33068;51.990;5.926;2023-04-15T02:29:12;7.70;99.90
47336;DHT22;33068;51.990;5.926;2023-04-15T02:31:39;7.70;99.90
47336;DHT22;33068;51.990;5.926;2023-04-15T02:34:09;7.80;99.90
47336;DHT22;33068;51.990;5.926;2023-04-15T02:36:36;7.70;99.90
47336;DHT22;33068;51.990;5.926;2023-04-15T02:39:07;7.80;99.90
47336;DHT22;33068;51.990;5.926;2023-04-15T02:41:35;7.80;99.90
47336;DHT22;33068;51.990;5.926;2023-04-15T02:44:03;7.70;99.90
47336;DHT22;33068;51.990;5.926;2023-04-15T02:46:32;7.70;99.90
47336;DHT22;33068;51.990;5.926;2023-04-15T02:49:01;7.80;99.90
47336;DHT22;33068;51.990;5.926;2023-04-15T02:51:30;7.70;99.90
47336;DHT22;33068;51.990;5.926;2023-04-15T02:53:57;7.70;99.90
47336;DHT22;33068;51.990;5.926;2023-04-15T02:56:24;7.60;99.90
47336;DHT22;33068;51.990;5.926;2023-04-15T02:58:55;7.30;99.90
47336;DHT22;33068;51.990;5.926;2023-04-15T03:01:22;7.60;99.90
47336;DHT22;33068;51.990;5.926;2023-04-15T03:03:53;7.10;99.90
47336;DHT22;33068;51.990;5.926;2023-04-15T03:06:21;7.50;99.90
47336;DHT22;33068;51.990;5.926;2023-04-15T03:08:51;7.50;99.90
47336;DHT22;33068;51.990;5.926;2023-04-15T03:11:19;7.40;99.90
47336;DHT22;33068;51.990;5.926;2023-04-15T03:13:48;7.50;99.90
47336;DHT22;33068;51.990;5.926;2023-04-15T03:16:24;7.20;99.90
47336;DHT22;33068;51.990;5.926;2023-04-15T03:18:52;7.30;99.90
47336;DHT22;33068;51.990;5.926;2023-04-15T03:21:22;7.20;99.90
47336;DHT22;33068;51.990;5.926;2023-04-15T03:23:53;7.20;99.90
47336;DHT22;33068;51.990;5.926;2023-04-15T03:26:26;7.20;99.90
47336;DHT22;33068;51.990;5.926;2023-04-15T03:29:09;7.10;99.90
47336;DHT22;33068;51.990;5.926;2023-04-15T03:31:44;7.10;99.90
47336;DHT22;33068;51.990;5.926;2023-04-15T03:34:11;7.10;99.90
47336;DHT22;33068;51.990;5.926;2023-04-15T03:36:38;7.10;99.90
47336;DHT22;33068;51.990;5.926;2023-04-15T03:39:07;7.10;99.90
47336;DHT22;33068;51.990;5.926;2023-04-15T03:41:35;7.00;99.90
47336;DHT22;33068;51.990;5.926;2023-04-15T03:44:02;7.00;99.90
47336;DHT22;33068;51.990;5.926;2023-04-15T03:46:29;7.00;99.90
47336;DHT22;33068;51.990;5.926;2023-04-15T03:48:57;7.10;99.90
47336;DHT22;33068;51.990;5.926;2023-04-15T03:51:28;6.50;99.90
47336;DHT22;33068;51.990;5.926;2023-04-15T03:53:56;7.10;99.90
47336;DHT22;33068;51.990;5.926;2023-04-15T03:56:24;6.90;99.90
47336;DHT22;33068;51.990;5.926;2023-04-15T03:58:53;6.90;99.90
47336;DHT22;33068;51.990;5.926;2023-04-15T04:01:20;7.00;99.90
47336;DHT22;33068;51.990;5.926;2023-04-15T04:03:47;6.80;99.90
47336;DHT22;33068;51.990;5.926;2023-04-15T04:06:15;6.80;99.90
47336;DHT22;33068;51.990;5.926;2023-04-15T04:08:42;6.80;99.90
47336;DHT22;33068;51.990;5.926;2023-04-15T04:11:09;6.70;99.90
47336;DHT22;33068;51.990;5.926;2023-04-15T04:13:39;6.70;99.90
47336;DHT22;33068;51.990;5.926;2023-04-15T04:16:06;6.70;99.90
47336;DHT22;33068;51.990;5.926;2023-04-15T04:18:35;6.70;99.90
47336;DHT22;33068;51.990;5.926;2023-04-15T04:21:16;6.60;99.90
47336;DHT22;33068;51.990;5.926;2023-04-15T04:23:46;6.60;99.90
47336;DHT22;33068;51.990;5.926;2023-04-15T04:26:25;6.60;99.90
47336;DHT22;33068;51.990;5.926;2023-04-15T04:28:54;6.70;99.90
47336;DHT22;33068;51.990;5.926;2023-04-15T04:31:24;6.60;99.90
47336;DHT22;33068;51.990;5.926;2023-04-15T04:33:52;6.60;99.90
47336;DHT22;33068;51.990;5.926;2023-04-15T04:36:20;6.60;99.90
47336;DHT22;33068;51.990;5.926;2023-04-15T04:38:58;6.50;99.90
47336;DHT22;33068;51.990;5.926;2023-04-15T04:41:26;6.60;99.90
47336;DHT22;33068;51.990;5.926;2023-04-15T04:44:03;6.50;99.90
47336;DHT22;33068;51.990;5.926;2023-04-15T04:46:31;6.50;99.90
47336;DHT22;33068;51.990;5.926;2023-04-15T04:48:58;6.50;99.90
47336;DHT22;33068;51.990;5.926;2023-04-15T04:51:26;6.40;99.90
47336;DHT22;33068;51.990;5.926;2023-04-15T04:53:53;6.40;99.90
47336;DHT22;33068;51.990;5.926;2023-04-15T04:56:24;6.40;99.90
47336;DHT22;33068;51.990;5.926;2023-04-15T04:58:51;6.40;99.90
47336;DHT22;33068;51.990;5.926;2023-04-15T05:01:20;6.40;99.90
47336;DHT22;33068;51.990;5.926;2023-04-15T05:07:35;6.10;99.90
47336;DHT22;33068;51.990;5.926;2023-04-15T05:10:04;6.40;99.90
47336;DHT22;33068;51.990;5.926;2023-04-15T05:12:31;6.30;99.90
47336;DHT22;33068;51.990;5.926;2023-04-15T05:15:02;6.30;99.90
47336;DHT22;33068;51.990;5.926;2023-04-15T05:17:34;6.30;99.90
47336;DHT22;33068;51.990;5.926;2023-04-15T05:20:01;6.40;99.90
47336;DHT22;33068;51.990;5.926;2023-04-15T05:22:31;6.40;99.90
47336;DHT22;33068;51.990;5.926;2023-04-15T05:25:00;6.30;99.90
47336;DHT22;33068;51.990;5.926;2023-04-15T05:27:27;6.40;99.90
47336;DHT22;33068;51.990;5.926;2023-04-15T05:29:58;6.40;99.90
47336;DHT22;33068;51.990;5.926;2023-04-15T05:32:26;6.60;99.90
47336;DHT22;33068;51.990;5.926;2023-04-15T05:35:05;6.60;99.90
47336;DHT22;33068;51.990;5.926;2023-04-15T05:37:35;6.60;99.90
47336;DHT22;33068;51.990;5.926;2023-04-15T05:40:06;6.70;99.90
47336;DHT22;33068;51.990;5.926;2023-04-15T05:42:36;6.70;99.90
47336;DHT22;33068;51.990;5.926;2023-04-15T05:45:07;6.80;99.90
47336;DHT22;33068;51.990;5.926;2023-04-15T05:47:34;6.80;99.90
47336;DHT22;33068;51.990;5.926;2023-04-15T05:50:07;6.90;99.90
47336;DHT22;33068;51.990;5.926;2023-04-15T05:52:37;6.90;99.90
47336;DHT22;33068;51.990;5.926;2023-04-15T05:55:05;7.00;99.90
47336;DHT22;33068;51.990;5.926;2023-04-15T05:57:32;7.20;99.90
47336;DHT22;33068;51.990;5.926;2023-04-15T06:00:04;7.20;99.90
47336;DHT22;33068;51.990;5.926;2023-04-15T06:02:35;7.50;99.90
47336;DHT22;33068;51.990;5.926;2023-04-15T06:05:03;7.60;99.90
47336;DHT22;33068;51.990;5.926;2023-04-15T06:07:36;7.80;99.90
47336;DHT22;33068;51.990;5.926;2023-04-15T06:10:04;7.90;99.90
47336;DHT22;33068;51.990;5.926;2023-04-15T06:12:32;8.10;99.90
47336;DHT22;33068;51.990;5.926;2023-04-15T06:14:59;8.20;99.90
47336;DHT22;33068;51.990;5.926;2023-04-15T06:17:28;8.20;99.90
47336;DHT22;33068;51.990;5.926;2023-04-15T06:20:01;8.20;99.90
47336;DHT22;33068;51.990;5.926;2023-04-15T06:22:37;8.20;99.90
47336;DHT22;33068;51.990;5.926;2023-04-15T06:25:06;8.40;99.90
47336;DHT22;33068;51.990;5.926;2023-04-15T06:27:34;8.40;99.90
47336;DHT22;33068;51.990;5.926;2023-04-15T06:30:01;8.50;99.90
47336;DHT22;33068;51.990;5.926;2023-04-15T06:32:33;8.50;99.90
47336;DHT22;33068;51.990;5.926;2023-04-15T06:35:01;8.50;99.90
47336;DHT22;33068;51.990;5.926;2023-04-15T06:37:37;8.40;99.90
47336;DHT22;33068;51.990;5.926;2023-04-15T06:40:05;8.60;99.90
47336;DHT22;33068;51.990;5.926;2023-04-15T06:42:36;8.40;99.90
47336;DHT22;33068;51.990;5.926;2023-04-15T06:45:05;8.40;99.90
47336;DHT22;33068;51.990;5.926;2023-04-15T06:47:33;8.40;99.90
47336;DHT22;33068;51.990;5.926;2023-04-15T06:50:00;8.30;99.90
47336;DHT22;33068;51.990;5.926;2023-04-15T06:52:28;8.30;99.90
47336;DHT22;33068;51.990;5.926;2023-04-15T06:54:57;8.30;99.90
47336;DHT22;33068;51.990;5.926;2023-04-15T06:57:28;8.20;99.90
47336;DHT22;33068;51.990;5.926;2023-04-15T06:59:55;8.20;99.90
47336;DHT22;33068;51.990;5.926;2023-04-15T07:02:22;8.20;99.90
47336;DHT22;33068;51.990;5.926;2023-04-15T07:04:53;8.20;99.90
47336;DHT22;33068;51.990;5.926;2023-04-15T07:07:23;8.20;99.90
47336;DHT22;33068;51.990;5.926;2023-04-15T07:09:50;8.30;99.90
47336;DHT22;33068;51.990;5.926;2023-04-15T07:12:20;8.20;99.90
47336;DHT22;33068;51.990;5.926;2023-04-15T07:14:47;8.30;99.90
47336;DHT22;33068;51.990;5.926;2023-04-15T07:17:15;8.30;99.90
47336;DHT22;33068;51.990;5.926;2023-04-15T07:19:45;8.30;99.90
47336;DHT22;33068;51.990;5.926;2023-04-15T07:22:12;8.30;99.90
47336;DHT22;33068;51.990;5.926;2023-04-15T07:24:39;8.30;99.90
47336;DHT22;33068;51.990;5.926;2023-04-15T07:27:09;8.40;99.90
47336;DHT22;33068;51.990;5.926;2023-04-15T07:29:38;8.30;99.90
47336;DHT22;33068;51.990;5.926;2023-04-15T07:32:05;8.30;99.90
47336;DHT22;33068;51.990;5.926;2023-04-15T07:34:32;8.40;99.90
47336;DHT22;33068;51.990;5.926;2023-04-15T07:37:00;8.40;99.90
47336;DHT22;33068;51.990;5.926;2023-04-15T07:39:27;8.50;99.90
47336;DHT22;33068;51.990;5.926;2023-04-15T07:41:57;8.70;99.90
47336;DHT22;33068;51.990;5.926;2023-04-15T07:44:25;8.70;99.90
47336;DHT22;33068;51.990;5.926;2023-04-15T07:46:54;8.80;99.90
47336;DHT22;33068;51.990;5.926;2023-04-15T07:49:21;8.90;99.90
47336;DHT22;33068;51.990;5.926;2023-04-15T07:51:49;9.00;99.90
47336;DHT22;33068;51.990;5.926;2023-04-15T07:54:18;9.10;99.90
47336;DHT22;33068;51.990;5.926;2023-04-15T07:56:45;9.10;99.90
47336;DHT22;33068;51.990;5.926;2023-04-15T07:59:13;9.10;99.90
47336;DHT22;33068;51.990;5.926;2023-04-15T08:01:42;9.40;99.90
47336;DHT22;33068;51.990;5.926;2023-04-15T08:04:11;9.50;99.90
47336;DHT22;33068;51.990;5.926;2023-04-15T08:06:39;9.60;99.90
47336;DHT22;33068;51.990;5.926;2023-04-15T08:09:06;9.70;99.90
47336;DHT22;33068;51.990;5.926;2023-04-15T08:11:37;9.80;99.90
47336;DHT22;33068;51.990;5.926;2023-04-15T08:14:04;10.00;99.90
47336;DHT22;33068;51.990;5.926;2023-04-15T08:16:33;10.20;99.90
47336;DHT22;33068;51.990;5.926;2023-04-15T08:19:02;10.30;99.90
47336;DHT22;33068;51.990;5.926;2023-04-15T08:21:34;10.30;99.90
47336;DHT22;33068;51.990;5.926;2023-04-15T08:24:03;10.40;99.90
47336;DHT22;33068;51.990;5.926;2023-04-15T08:26:32;10.40;99.90
47336;DHT22;33068;51.990;5.926;2023-04-15T08:29:01;10.50;99.90
47336;DHT22;33068;51.990;5.926;2023-04-15T08:31:29;10.60;99.90
47336;DHT22;33068;51.990;5.926;2023-04-15T08:33:56;10.70;99.90
47336;DHT22;33068;51.990;5.926;2023-04-15T08:36:32;10.80;99.90
47336;DHT22;33068;51.990;5.926;2023-04-15T08:39:07;10.90;99.90
47336;DHT22;33068;51.990;5.926;2023-04-15T08:41:43;11.00;99.90
47336;DHT22;33068;51.990;5.926;2023-04-15T08:44:13;11.10;99.90
47336;DHT22;33068;51.990;5.926;2023-04-15T08:46:47;11.20;99.90
47336;DHT22;33068;51.990;5.926;2023-04-15T08:49:29;11.20;99.90
47336;DHT22;33068;51.990;5.926;2023-04-15T08:51:58;11.20;99.90
47336;DHT22;33068;51.990;5.926;2023-04-15T08:54:28;11.20;99.90
47336;DHT22;33068;51.990;5.926;2023-04-15T08:56:59;11.20;99.90
47336;DHT22;33068;51.990;5.926;2023-04-15T08:59:34;11.20;99.90
47336;DHT22;33068;51.990;5.926;2023-04-15T09:02:04;11.20;99.90
47336;DHT22;33068;51.990;5.926;2023-04-15T09:04:34;11.20;99.90
47336;DHT22;33068;51.990;5.926;2023-04-15T09:07:01;11.40;99.90
47336;DHT22;33068;51.990;5.926;2023-04-15T09:09:31;11.40;99.90
47336;DHT22;33068;51.990;5.926;2023-04-15T09:12:08;11.50;99.90
47336;DHT22;33068;51.990;5.926;2023-04-15T09:14:36;11.60;99.90
47336;DHT22;33068;51.990;5.926;2023-04-15T09:17:12;11.60;99.90
47336;DHT22;33068;51.990;5.926;2023-04-15T09:19:39;11.60;99.90
47336;DHT22;33068;51.990;5.926;2023-04-15T09:22:12;11.80;99.90
47336;DHT22;33068;51.990;5.926;2023-04-15T09:24:47;11.90;99.90
47336;DHT22;33068;51.990;5.926;2023-04-15T09:27:20;12.30;99.90
47336;DHT22;33068;51.990;5.926;2023-04-15T09:29:49;12.30;99.90
47336;DHT22;33068;51.990;5.926;2023-04-15T09:32:23;12.50;99.90
47336;DHT22;33068;51.990;5.926;2023-04-15T09:34:51;12.70;99.90
47336;DHT22;33068;51.990;5.926;2023-04-15T09:37:36;12.90;99.90
47336;DHT22;33068;51.990;5.926;2023-04-15T09:40:10;13.00;99.90
47336;DHT22;33068;51.990;5.926;2023-04-15T09:42:57;13.00;99.90
47336;DHT22;33068;51.990;5.926;2023-04-15T09:45:27;13.00;99.90
47336;DHT22;33068;51.990;5.926;2023-04-15T09:48:15;13.10;99.90
47336;DHT22;33068;51.990;5.926;2023-04-15T09:50:48;13.00;99.90
47336;DHT22;33068;51.990;5.926;2023-04-15T09:53:32;13.10;99.90
47336;DHT22;33068;51.990;5.926;2023-04-15T09:56:02;13.30;99.90
47336;DHT22;33068;51.990;5.926;2023-04-15T09:58:33;13.10;99.90
47336;DHT22;33068;51.990;5.926;2023-04-15T10:01:03;13.60;99.90
47336;DHT22;33068;51.990;5.926;2023-04-15T10:03:32;13.60;99.90
47336;DHT22;33068;51.990;5.926;2023-04-15T10:06:00;13.60;99.90
47336;DHT22;33068;51.990;5.926;2023-04-15T10:08:29;13.60;99.90
47336;DHT22;33068;51.990;5.926;2023-04-15T10:10:58;13.80;99.90
47336;DHT22;33068;51.990;5.926;2023-04-15T10:13:30;13.80;99.90
47336;DHT22;33068;51.990;5.926;2023-04-15T10:16:05;13.90;99.90
47336;DHT22;33068;51.990;5.926;2023-04-15T10:18:35;14.10;99.90
47336;DHT22;33068;51.990;5.926;2023-04-15T10:21:04;14.30;99.90
47336;DHT22;33068;51.990;5.926;2023-04-15T10:23:33;14.20;99.90
47336;DHT22;33068;51.990;5.926;2023-04-15T10:26:03;14.30;99.90
47336;DHT22;33068;51.990;5.926;2023-04-15T10:28:33;14.30;99.90
47336;DHT22;33068;51.990;5.926;2023-04-15T10:31:01;14.20;99.90
47336;DHT22;33068;51.990;5.926;2023-04-15T10:33:29;13.90;99.90
47336;DHT22;33068;51.990;5.926;2023-04-15T10:35:57;13.80;99.90
47336;DHT22;33068;51.990;5.926;2023-04-15T10:38:32;13.90;99.90
47336;DHT22;33068;51.990;5.926;2023-04-15T10:41:16;13.80;99.90
47336;DHT22;33068;51.990;5.926;2023-04-15T10:43:55;14.00;99.90
47336;DHT22;33068;51.990;5.926;2023-04-15T10:46:26;13.80;99.90
47336;DHT22;33068;51.990;5.926;2023-04-15T10:49:07;14.40;99.90
47336;DHT22;33068;51.990;5.926;2023-04-15T10:51:40;14.70;99.90
47336;DHT22;33068;51.990;5.926;2023-04-15T10:54:13;14.80;99.60
47336;DHT22;33068;51.990;5.926;2023-04-15T10:56:41;14.80;99.30
47336;DHT22;33068;51.990;5.926;2023-04-15T10:59:11;14.50;99.40
47336;DHT22;33068;51.990;5.926;2023-04-15T11:01:52;14.30;99.90
47336;DHT22;33068;51.990;5.926;2023-04-15T11:04:55;14.10;99.70
47336;DHT22;33068;51.990;5.926;2023-04-15T11:07:46;14.30;99.90
47336;DHT22;33068;51.990;5.926;2023-04-15T11:13:26;14.30;99.90
47336;DHT22;33068;51.990;5.926;2023-04-15T11:16:00;14.30;99.90
47336;DHT22;33068;51.990;5.926;2023-04-15T11:18:29;14.30;99.90
47336;DHT22;33068;51.990;5.926;2023-04-15T11:20:59;14.70;99.40
47336;DHT22;33068;51.990;5.926;2023-04-15T11:23:29;14.60;99.50
47336;DHT22;33068;51.990;5.926;2023-04-15T11:25:57;14.60;99.80
47336;DHT22;33068;51.990;5.926;2023-04-15T11:28:25;14.40;98.80
47336;DHT22;33068;51.990;5.926;2023-04-15T11:30:53;14.40;98.50
47336;DHT22;33068;51.990;5.926;2023-04-15T11:33:23;14.50;98.60
47336;DHT22;33068;51.990;5.926;2023-04-15T11:35:52;14.90;98.60
47336;DHT22;33068;51.990;5.926;2023-04-15T11:38:21;15.30;97.80
47336;DHT22;33068;51.990;5.926;2023-04-15T11:40:50;15.60;97.90
47336;DHT22;33068;51.990;5.926;2023-04-15T11:43:19;15.70;96.80
47336;DHT22;33068;51.990;5.926;2023-04-15T11:45:52;15.50;97.50
47336;DHT22;33068;51.990;5.926;2023-04-15T11:48:22;15.70;96.20
47336;DHT22;33068;51.990;5.926;2023-04-15T11:50:57;15.40;95.80
47336;DHT22;33068;51.990;5.926;2023-04-15T11:53:36;15.50;95.60
47336;DHT22;33068;51.990;5.926;2023-04-15T11:56:04;15.80;95.40
47336;DHT22;33068;51.990;5.926;2023-04-15T11:58:34;16.00;95.50
47336;DHT22;33068;51.990;5.926;2023-04-15T12:01:04;16.00;95.80
47336;DHT22;33068;51.990;5.926;2023-04-15T12:03:37;16.00;95.20
47336;DHT22;33068;51.990;5.926;2023-04-15T12:06:15;15.80;95.90
47336;DHT22;33068;51.990;5.926;2023-04-15T12:09:08;15.90;95.10
47336;DHT22;33068;51.990;5.926;2023-04-15T12:11:38;15.90;95.00
47336;DHT22;33068;51.990;5.926;2023-04-15T12:14:18;15.50;96.20
47336;DHT22;33068;51.990;5.926;2023-04-15T12:17:09;15.50;96.60
47336;DHT22;33068;51.990;5.926;2023-04-15T12:19:41;15.50;96.00
47336;DHT22;33068;51.990;5.926;2023-04-15T12:22:12;15.70;96.00
47336;DHT22;33068;51.990;5.926;2023-04-15T12:24:41;16.00;95.30
47336;DHT22;33068;51.990;5.926;2023-04-15T12:27:16;16.20;95.20
47336;DHT22;33068;51.990;5.926;2023-04-15T12:29:46;16.50;95.10
47336;DHT22;33068;51.990;5.926;2023-04-15T12:32:15;16.70;94.80
47336;DHT22;33068;51.990;5.926;2023-04-15T12:34:51;16.70;94.90
47336;DHT22;33068;51.990;5.926;2023-04-15T12:37:19;16.10;94.70
47336;DHT22;33068;51.990;5.926;2023-04-15T12:39:47;16.10;94.90
47336;DHT22;33068;51.990;5.926;2023-04-15T12:42:18;16.40;94.70
47336;DHT22;33068;51.990;5.926;2023-04-15T12:44:49;16.30;94.50
47336;DHT22;33068;51.990;5.926;2023-04-15T12:47:16;16.10;95.00
47336;DHT22;33068;51.990;5.926;2023-04-15T12:49:45;15.80;95.20
47336;DHT22;33068;51.990;5.926;2023-04-15T12:52:18;15.80;95.90
47336;DHT22;33068;51.990;5.926;2023-04-15T12:54:45;15.60;95.70
47336;DHT22;33068;51.990;5.926;2023-04-15T12:57:14;15.40;95.80
47336;DHT22;33068;51.990;5.926;2023-04-15T12:59:46;15.40;96.80
47336;DHT22;33068;51.990;5.926;2023-04-15T13:02:15;15.40;95.90
47336;DHT22;33068;51.990;5.926;2023-04-15T13:04:43;15.30;96.50
47336;DHT22;33068;51.990;5.926;2023-04-15T13:07:10;15.20;96.10
47336;DHT22;33068;51.990;5.926;2023-04-15T13:09:42;15.00;96.60
47336;DHT22;33068;51.990;5.926;2023-04-15T13:12:09;14.90;96.90
47336;DHT22;33068;51.990;5.926;2023-04-15T13:14:38;15.20;96.30
47336;DHT22;33068;51.990;5.926;2023-04-15T13:17:12;15.60;95.80
47336;DHT22;33068;51.990;5.926;2023-04-15T13:19:40;15.50;95.70
47336;DHT22;33068;51.990;5.926;2023-04-15T13:22:08;15.50;96.00
47336;DHT22;33068;51.990;5.926;2023-04-15T13:24:40;15.20;95.80
47336;DHT22;33068;51.990;5.926;2023-04-15T13:27:07;15.20;96.60
47336;DHT22;33068;51.990;5.926;2023-04-15T13:29:34;14.90;96.70
47336;DHT22;33068;51.990;5.926;2023-04-15T13:32:06;15.00;97.10
47336;DHT22;33068;51.990;5.926;2023-04-15T13:34:33;15.20;96.30
47336;DHT22;33068;51.990;5.926;2023-04-15T13:37:05;15.30;95.80
47336;DHT22;33068;51.990;5.926;2023-04-15T13:39:34;15.10;95.90
47336;DHT22;33068;51.990;5.926;2023-04-15T13:42:06;14.70;96.30
47336;DHT22;33068;51.990;5.926;2023-04-15T13:44:39;14.30;97.10
47336;DHT22;33068;51.990;5.926;2023-04-15T13:47:09;14.70;97.20
47336;DHT22;33068;51.990;5.926;2023-04-15T13:49:43;14.80;97.30
47336;DHT22;33068;51.990;5.926;2023-04-15T13:52:14;14.80;96.70
47336;DHT22;33068;51.990;5.926;2023-04-15T13:54:42;14.80;97.10
47336;DHT22;33068;51.990;5.926;2023-04-15T13:57:11;14.60;97.40
47336;DHT22;33068;51.990;5.926;2023-04-15T13:59:40;14.40;97.80
47336;DHT22;33068;51.990;5.926;2023-04-15T14:02:08;14.20;98.20
47336;DHT22;33068;51.990;5.926;2023-04-15T14:04:37;14.20;98.30
47336;DHT22;33068;51.990;5.926;2023-04-15T14:07:06;14.10;98.20
47336;DHT22;33068;51.990;5.926;2023-04-15T14:09:34;13.70;99.00
47336;DHT22;33068;51.990;5.926;2023-04-15T14:12:04;13.70;99.20
47336;DHT22;33068;51.990;5.926;2023-04-15T14:14:34;13.50;99.20
47336;DHT22;33068;51.990;5.926;2023-04-15T14:17:02;13.50;99.10
47336;DHT22;33068;51.990;5.926;2023-04-15T14:19:30;13.50;99.10
47336;DHT22;33068;51.990;5.926;2023-04-15T14:22:00;13.30;99.60
47336;DHT22;33068;51.990;5.926;2023-04-15T14:24:28;13.30;99.90
47336;DHT22;33068;51.990;5.926;2023-04-15T14:26:56;13.30;99.90
47336;DHT22;33068;51.990;5.926;2023-04-15T14:29:25;13.10;99.90
47336;DHT22;33068;51.990;5.926;2023-04-15T14:32:00;13.10;99.90
47336;DHT22;33068;51.990;5.926;2023-04-15T14:34:28;12.80;99.90
47336;DHT22;33068;51.990;5.926;2023-04-15T14:36:55;12.70;99.90
47336;DHT22;33068;51.990;5.926;2023-04-15T14:39:29;12.50;99.90
47336;DHT22;33068;51.990;5.926;2023-04-15T14:41:59;12.30;99.90
47336;DHT22;33068;51.990;5.926;2023-04-15T14:44:26;12.30;99.90
47336;DHT22;33068;51.990;5.926;2023-04-15T14:47:01;12.20;99.90
47336;DHT22;33068;51.990;5.926;2023-04-15T14:49:32;12.20;99.90
47336;DHT22;33068;51.990;5.926;2023-04-15T14:52:01;12.20;99.90
47336;DHT22;33068;51.990;5.926;2023-04-15T14:54:31;12.10;99.90
47336;DHT22;33068;51.990;5.926;2023-04-15T14:56:58;12.10;99.90
47336;DHT22;33068;51.990;5.926;2023-04-15T14:59:32;11.90;99.90
47336;DHT22;33068;51.990;5.926;2023-04-15T15:02:01;12.20;99.90
47336;DHT22;33068;51.990;5.926;2023-04-15T15:04:28;11.80;99.90
47336;DHT22;33068;51.990;5.926;2023-04-15T15:06:58;11.90;99.90
47336;DHT22;33068;51.990;5.926;2023-04-15T15:09:26;11.90;99.90
47336;DHT22;33068;51.990;5.926;2023-04-15T15:11:58;11.90;99.90
47336;DHT22;33068;51.990;5.926;2023-04-15T15:14:28;11.80;99.90
47336;DHT22;33068;51.990;5.926;2023-04-15T15:17:08;11.80;99.90
47336;DHT22;33068;51.990;5.926;2023-04-15T15:19:36;11.60;99.90
47336;DHT22;33068;51.990;5.926;2023-04-15T15:22:04;11.60;99.90
47336;DHT22;33068;51.990;5.926;2023-04-15T15:24:36;11.60;99.90
47336;DHT22;33068;51.990;5.926;2023-04-15T15:27:03;11.60;99.90
47336;DHT22;33068;51.990;5.926;2023-04-15T15:29:30;11.60;99.90
47336;DHT22;33068;51.990;5.926;2023-04-15T15:31:57;11.70;99.90
47336;DHT22;33068;51.990;5.926;2023-04-15T15:34:30;11.70;99.90
47336;DHT22;33068;51.990;5.926;2023-04-15T15:37:02;11.60;99.90
47336;DHT22;33068;51.990;5.926;2023-04-15T15:39:30;11.60;99.90
47336;DHT22;33068;51.990;5.926;2023-04-15T15:42:01;11.60;99.90
47336;DHT22;33068;51.990;5.926;2023-04-15T15:44:33;11.50;99.90
47336;DHT22;33068;51.990;5.926;2023-04-15T15:47:05;11.50;99.90
47336;DHT22;33068;51.990;5.926;2023-04-15T15:49:34;11.30;99.90
47336;DHT22;33068;51.990;5.926;2023-04-15T15:52:03;11.40;99.90
47336;DHT22;33068;51.990;5.926;2023-04-15T15:54:33;11.20;99.90
47336;DHT22;33068;51.990;5.926;2023-04-15T15:57:04;11.10;99.90
47336;DHT22;33068;51.990;5.926;2023-04-15T15:59:32;11.10;99.90
47336;DHT22;33068;51.990;5.926;2023-04-15T16:02:01;11.10;99.90